KEYO2: Keystone Lake

Data processed at Sun Oct 25 2020 21:55


All information presented herein is the property of the government of the United States of America and may be revised or deleted at any time without prior notice.
Dissemination of this information without the expressed written consent of the Public Affairs Office, Tulsa District U.S. Army Corps of Engineers is strictly prohibited.
These data are gathered electronically and, as presented, have not undergone any form of quality control. These data are not guaranteed to be valid or correct.
Go to home page.
Go to station list.
Go to home page.

Upstream stations:

Downstream station:
Previous Day
Next Day
Current Day
    
SHEF ID:       KEYO2     Keystone Lake
STATION TYPE:  Reservoir
Flood Pool:  Bottom =   723.00, Top =   754.00

               PRECIP ELEVATION   STORAGE   TW-ELEV    INFLOW   RELEASE  AIR-TEMP  WIND-DIRWIND-SPEED REL-HUMID SOLAR-RAD   VOLTAGE  BAT-LOAD
                   in        ft     ac-ft        ft       cfs       cfs         F       deg       mph         %      W/m2      volt      volt
              Ccp-Rev   Ccp-Rev   Ccp-Rev   Ccp-Rev  Rev-Regi  Rev-Regi   Ccp-Rev   Ccp-Rev   Ccp-Rev   Ccp-Rev   Ccp-Rev   Ccp-Rev   Ccp-Rev
(US/Central)
10/25 00:00      0.00    722.13    417495    637.34         0         0     43.23     92.40      3.10     86.85      0.00     13.53     13.21
10/25 01:00      0.00    722.13    417495    637.33         0         0     42.66    104.10      3.90     89.47      0.00     13.53     13.21
10/25 02:00      0.00    722.14    417661    637.32       156         0     41.90    111.70      2.90     93.21      0.00     13.53     13.21
10/25 03:00      0.00    722.13    417495    637.32       288         0     40.44    118.50      3.10     98.66      0.00     13.53     13.21
10/25 04:00      0.00    722.15    417827    637.32       288         0     40.28    116.60      3.20    100.17      0.00     13.53     13.21
10/25 05:00      0.00    722.14    417661    637.32       288         0     41.29    118.80      2.40    100.24      0.00     13.53     13.21
10/25 06:00      0.00    722.14    417661    637.31       288         0     41.81    115.50      1.90    100.24      0.00     13.53     13.21
10/25 07:00      0.00    722.14    417661    637.31       622       200     42.53    120.30      1.90    100.25      0.00     13.53     13.21
10/25 08:00      0.00    722.13    417495    637.01       726      5700     43.57    121.60      1.30     99.78      0.00     13.53     13.21
10/25 09:00      0.00    722.12    417330    640.55       726      5800     44.51     85.60      1.50     96.60     24.70     13.53     13.21
10/25 10:00      0.00    722.10    416998    640.65       726      5800     45.75     66.40      2.90     91.15     68.90     14.40     13.21
10/25 11:00      0.00    722.08    416666    640.68       726      5700     47.46     59.90      4.30     85.73    156.90     14.40     13.21
10/25 12:00      0.00    722.04    416003    640.68       237       200     48.16     33.00      7.30     83.10    209.40     14.40     13.29
10/25 13:00      0.00    722.03    415837    638.63        96         0     48.22     14.90      6.50     82.63    154.90     13.99     13.37
10/25 14:00      0.00    722.03    415837    638.03        96         0     48.60      5.00      7.70     80.43    150.90     13.99     13.37
10/25 15:00      0.00    722.04    416003    637.76        96         0     48.83    338.30      9.10     79.19    116.20     13.54     13.29
10/25 16:00      0.00    722.04    416003    637.62       334         0     48.20    349.00     10.50     80.43    103.70     13.58     13.29
10/25 17:00      0.00    722.04    416003    637.52       334         0     48.27     22.00      7.60     78.40     55.80     13.54     13.29
10/25 18:00      0.00    722.06    416335    637.47       359         0     48.29     31.20      6.70     77.45      9.70     13.54     13.21
10/25 19:00      0.00    722.06    416335    637.43       359         0     48.18     15.60      6.50     76.39      0.00     13.54     13.21
10/25 20:00      0.00    722.07    416501    637.39       481         0     47.57    359.70      8.50     76.36      0.00     13.53     13.21
10/25 21:00      0.00    722.05    416169    637.38       122         0     46.40     12.20      8.70     77.58      0.00     13.54     13.21
10/25 22:00      ----      ----      ----      ----      ----      ----      ----      ----      ----      ----      ----      ----      ----
10/25 23:00      ----      ----      ----      ----      ----      ----      ----      ----      ----      ----      ----      ----      ----